Observations for Trim Market St
| Time | AQI | Temp °C | Hum % | Pres Pa | CO μg/m³ | H₂S μg/m³ | NO μg/m³ | NO₂ μg/m³ | O₃ μg/m³ | SO₂ μg/m³ | PM1 μg/m³ | PM2.5 μg/m³ | PM10 μg/m³ |
|---|---|---|---|---|---|---|---|---|---|---|---|---|---|
| Thursday 27 August 2026 | |||||||||||||
| 14:04 | 2 | 19.7 | 79 | 2,147,483,647 | 0.19 | 0 | 1.94 | 2.17 | 51.86 | 0 | 13.54 | 14.48 | 20.17 |
| 14:03 | 2 | 19.7 | 79 | 2,147,483,647 | 0.5 | 0 | 1.95 | 7.36 | 50.92 | 0 | 11.4 | 13.06 | 17.87 |
| 14:02 | 2 | 19.7 | 79 | 2,147,483,647 | 0.25 | 0 | 1.97 | 11.05 | 47.85 | 0 | 13.54 | 16.84 | 24.77 |
| 14:01 | 2 | 19.7 | 79 | 2,147,483,647 | 0.14 | 0 | 1.94 | 3.79 | 55.07 | 0 | 12.83 | 14.95 | 21.89 |
| 14:00 | 2 | 19.7 | 79 | 2,147,483,647 | 0.16 | 0 | 1.95 | 9.02 | 54.32 | 0 | 12.83 | 15.42 | 23.62 |
| 13:59 | 2 | 19.7 | 79 | 2,147,483,647 | 0.2 | 0 | 1.99 | 11.91 | 48.53 | 0 | 13.54 | 15.9 | 23.04 |
| 13:58 | 2 | 19.7 | 79 | 2,147,483,647 | 0.14 | 0 | 2.02 | 3.59 | 52.1 | 0 | 12.83 | 14.95 | 23.04 |
| 13:57 | 2 | 19.7 | 79 | 2,147,483,647 | 0.17 | 0 | 1.99 | 0.88 | 50.1 | 0 | 12.83 | 14.48 | 21.89 |
| 13:56 | 2 | 19.7 | 79 | 2,147,483,647 | 0.23 | 0 | 2.07 | 6.96 | 51.58 | 0 | 12.11 | 14.48 | 19.6 |
| 13:55 | 2 | 19.8 | 79 | 2,147,483,647 | 0.47 | 0 | 2.03 | 14.59 | 41.29 | 0 | 14.25 | 15.9 | 23.62 |
| 13:54 | 2 | 19.8 | 79 | 2,147,483,647 | 0.33 | 0 | 1.94 | 2.05 | 49.54 | 0 | 14.25 | 16.84 | 24.77 |
| 13:53 | 2 | 19.7 | 79 | 2,147,483,647 | 0.15 | 0 | 1.94 | 2.73 | 52.25 | 0 | 13.54 | 14.95 | 21.32 |
| 13:52 | 2 | 19.8 | 79 | 2,147,483,647 | 0.18 | 0 | 1.95 | 14.2 | 41.43 | 0 | 13.54 | 14.94 | 21.88 |
| 13:51 | 2 | 19.7 | 79 | 2,147,483,647 | 0.16 | 0 | 1.97 | 1.53 | 53.67 | 0 | 14.25 | 15.89 | 23.03 |
| 13:48 | 2 | 19.8 | 79 | 2,147,483,647 | 0.22 | 0 | 1.95 | 6.07 | 45.11 | 0 | 15.68 | 17.3 | 25.88 |
| 13:47 | 2 | 19.8 | 79 | 2,147,483,647 | 0.17 | 0 | 1.95 | 3.23 | 54 | 0 | 12.11 | 15.4 | 23 |
| 13:45 | 2 | 19.8 | 79 | 2,147,483,647 | 0.48 | 0 | 1.99 | 13.63 | 48.57 | 0 | 16.39 | 16.81 | 24.7 |
| 13:44 | 2 | 19.8 | 79 | 2,147,483,647 | 0.2 | 0 | 1.99 | 9.27 | 50.7 | 0 | 12.83 | 14.92 | 20.69 |
| 13:43 | 2 | 19.8 | 79 | 2,147,483,647 | 0.27 | 0 | 2.01 | 18.25 | 46.37 | 0 | 14.25 | 17.27 | 25.25 |
| 13:42 | 2 | 19.8 | 79 | 2,147,483,647 | 0.19 | 0 | 2.03 | 13.01 | 50.07 | 0 | 15.68 | 16.79 | 25.8 |